Melbourne, FL (32934)

5:47 AM EDT on September 21, 2014 (GMT -0400)
West Eau Gallie | Change Station
CLOSE
Current Station
Personal Weather Station
Location: Melbourne, FL
Elevation: 29 ft
Nearby Weather Stations

Elev 29 ft 28.13 °N, 80.68 °W | Updated 5 seconds ago

Clear
Clear
70.9 °F
Feels Like 70.9 °F
N
-
Wind Variable Wind from North

Today
High -- | Low -- °F
--% Chance of Precip.
Yesterday
High -- | Low -- °F
Precip. -- in
7:10 AM 7:20 PM
Waning Crescent, 7% visible
Pressure 29.94 in
Visibility 10.0 miles
Clouds Clear
Dew Point 70 °F
Humidity 99%
Rainfall 0.00 in
Snow Depth Not available.
UV 0 out of 12
Pollen 5.30 out of 12
Air Quality Not available.
Flu Activity Not available.
METAR KMLB 210853Z 22003KT 10SM CLR 22/21 A2994 RMK AO2 SLP137 T02220211 53002 $

More Conditions Fewer Conditions

Pressure 29.94 in
Visibility 10.0 miles
Clouds Clear
Dew Point 70 °F
Humidity 99%
Rainfall 0.00 in
Snow Depth Not available.
UV 0 out of 12
Pollen 5.30 out of 12
Air Quality Not available.
Flu Activity Not available.
METAR KMLB 210853Z 22003KT 10SM CLR 22/21 A2994 RMK AO2 SLP137 T02220211 53002 $

More Conditions Fewer Conditions

10-Day Weather Forecast

Almanac

Astronomy

Sep. 21, 2014 Rise Set
Actual Time 7:10 AM EDT 7:20 PM EDT
Civil Twilight 6:47 AM EDT 7:43 PM EDT
Nautical Twilight 6:19 AM EDT 8:11 PM EDT
Astronomical Twilight 5:52 AM EDT 8:38 PM EDT
Moon 4:52 AM EDT 5:48 PM EDT
Length of Visible Light 12h 56m
Length of Day
12h 09m
Tomorrow will be 1m 40s shorter.
Waning Crescent, 7% of the Moon is Illuminated
Today
Waning Crescent
Sep 24
New
Oct 1
First Quarter
Oct 8
Full
Oct 15
Last Quarter

Today's Extremes

State Highs State Lows

Community

WunderPhotos

Upload Photos

1,755,106 photos uploaded!

Nearby

Snow Depth

Station Depth Elevation
No new snow has been reported.

Earthquake Activity

City Distance Mag. Time & Date
No recent earthquake activity has been reported nearby.
Minimum magnitude displayed is 2.5.

Coastal Water Temperatures

Place Temperature
Trident Pier, FL 84.0 °F
Fort Myers, FL 82.9 °F
Lake Worth, FL 84.9 °F

Nearby Weather Stations